Havelock, Nebraska
Current Conditions -  °F | °C
As of 9:54 AM on Saturday 22 Nov 2014 (Local Time) from KLNK Reporting Station
Haze Haze  
Wind Chill: 32°   Ceiling: 400
Heat Index: 40°   Visibility: 2mi
Dew Point: 37°   Wind: 15mph
Humidity: 89%   Direction: 190°S
Pressure: 29.85"   Gusts: NA
Location:  40.8505°N, 96.6337°W
Report Text: KLNK 221554Z 19013KT 2SM BR OVC004 04/03 A2985 RMK AO2 SLP114 T00440028
Loading
Personal Weather Stations






























Interactive Weather Map New forecast layout! Learn more

10-Day Weather Forecast

Advertisements
Track Severe Weather on mobile